Time;durP1;ratioP1;P1;durP2;ratioP2;P2;SDS_P1;SDS_P2;PMS_P1;PMS_P2;Temp;Humidity;BMP_temperature;BMP_pressure;BME280_temperature;BME280_humidity;BME280_pressure;Samples;Min_cycle;Max_cycle;Signal;HPM_P1;HPM_P2
2023/05/31 00:00:56;;;;;;;;;;;;;;;29.42;27.96;96585.59;4966355;28;20377;-49
2023/05/31 00:03:25;;;;;;;;;;;;;;;29.06;27.99;96589.94;4964223;28;19980;-52
2023/05/31 00:05:53;;;;;;;;;;;;;;;29.28;27.78;96592.53;4956436;28;19977;-50
2023/05/31 00:08:21;;;;;;;;;;;;;;;29.66;27.50;96591.47;4966045;28;20429;-50
2023/05/31 00:10:49;;;;;;;;;;;;;;;28.54;28.72;96587.81;4966163;28;19968;-49
2023/05/31 00:13:17;;;;;;;;;;;;;;;28.71;28.42;96598.56;4961813;28;20385;-52
2023/05/31 00:15:45;;;;;;;;;;;;;;;28.92;28.39;96589.53;4961950;28;19960;-48
2023/05/31 00:18:13;;;;;;;;;;;;;;;29.19;27.78;96591.41;4958541;28;19970;-54
2023/05/31 00:20:43;;;;;;;;;;;;;;;29.08;28.08;96585.91;4966835;28;19958;-51
2023/05/31 00:23:11;;;;;;;;;;;;;;;29.17;27.75;96594.38;4963037;28;19993;-46
2023/05/31 00:25:39;;;;;;;;;;;;;;;28.30;28.51;96589.97;4964039;28;19965;-49
2023/05/31 00:28:07;;;;;;;;;;;;;;;28.59;28.27;96585.94;4955939;28;19960;-48
2023/05/31 00:30:35;;;;;;;;;;;;;;;28.52;28.37;96595.38;4968263;28;19973;-47
2023/05/31 00:33:03;;;;;;;;;;;;;;;27.62;29.42;96600.19;4963677;28;20379;-50
2023/05/31 00:35:32;;;;;;;;;;;;;;;28.73;28.16;96596.41;4960848;28;19968;-47
2023/05/31 00:38:02;;;;;;;;;;;;;;;28.47;28.36;96588.00;4956443;28;20355;-50
2023/05/31 00:40:30;;;;;;;;;;;;;;;29.06;27.78;96595.38;4961980;28;19968;-51
2023/05/31 00:42:58;;;;;;;;;;;;;;;28.43;28.51;96597.75;4963104;28;19965;-51
2023/05/31 00:45:28;;;;;;;;;;;;;;;28.07;28.68;96597.28;4957984;28;19992;-49
2023/05/31 00:47:59;;;;;;;;;;;;;;;27.73;28.79;96591.13;4959849;28;19937;-50
2023/05/31 00:50:28;;;;;;;;;;;;;;;27.94;28.35;96594.94;4957496;28;19969;-48
2023/05/31 00:52:57;;;;;;;;;;;;;;;27.99;28.61;96595.03;4963922;28;19962;-50
2023/05/31 00:55:26;;;;;;;;;;;;;;;27.57;28.74;96603.66;4962209;28;19965;-48
2023/05/31 00:57:54;;;;;;;;;;;;;;;28.02;28.56;96599.13;4967284;28;19964;-46
2023/05/31 01:00:23;;;;;;;;;;;;;;;27.85;28.58;96599.19;4963536;28;19953;-47
2023/05/31 01:02:51;;;;;;;;;;;;;;;27.85;28.48;96591.88;4965598;28;19971;-46
2023/05/31 01:05:20;;;;;;;;;;;;;;;27.91;28.57;96592.75;4966141;28;19970;-47
2023/05/31 01:07:48;;;;;;;;;;;;;;;27.86;28.71;96589.97;4959493;28;20360;-50
2023/05/31 01:10:16;;;;;;;;;;;;;;;28.23;28.21;96590.16;4961927;28;19954;-49
2023/05/31 01:12:49;;;;;;;;;;;;;;;27.64;28.74;96592.63;4963251;28;19977;-52
2023/05/31 01:15:18;;;;;;;;;;;;;;;27.56;28.74;96584.91;4959128;28;19957;-48
2023/05/31 01:17:48;;;;;;;;;;;;;;;27.97;28.34;96585.50;4968120;28;19962;-53
2023/05/31 01:20:19;;;;;;;;;;;;;;;27.81;28.39;96585.31;4970551;28;19957;-47
2023/05/31 01:22:57;;;;;;;;;;;;;;;27.30;28.96;96583.75;4962258;28;19966;-49
2023/05/31 01:25:32;;;;;;;;;;;;;;;27.14;28.42;96588.91;4966546;28;19972;-47
2023/05/31 01:28:02;;;;;;;;;;;;;;;27.11;29.01;96578.53;4954551;28;19969;-47
2023/05/31 01:30:30;;;;;;;;;;;;;;;27.29;28.83;96582.09;4963623;28;19954;-51
2023/05/31 01:32:58;;;;;;;;;;;;;;;26.91;28.64;96578.22;4961327;28;19969;-45
2023/05/31 01:35:27;;;;;;;;;;;;;;;26.85;28.74;96576.50;4956170;28;19976;-51
2023/05/31 01:37:55;;;;;;;;;;;;;;;27.18;28.90;96575.69;4970767;28;19961;-47
2023/05/31 01:40:23;;;;;;;;;;;;;;;27.42;28.32;96573.63;4955107;28;19966;-48
2023/05/31 01:42:51;;;;;;;;;;;;;;;27.64;28.20;96566.34;4961363;28;19968;-52
2023/05/31 01:45:20;;;;;;;;;;;;;;;27.47;28.27;96568.28;4966611;28;19980;-52
2023/05/31 01:47:48;;;;;;;;;;;;;;;27.47;28.01;96564.75;4966682;28;20788;-48
2023/05/31 01:50:16;;;;;;;;;;;;;;;26.50;28.74;96569.41;4955213;28;19961;-49
2023/05/31 01:52:44;;;;;;;;;;;;;;;27.21;28.19;96567.91;4963072;28;19969;-46
2023/05/31 01:55:12;;;;;;;;;;;;;;;27.65;27.86;96561.75;4956101;28;20363;-50
2023/05/31 01:57:41;;;;;;;;;;;;;;;26.58;29.21;96570.91;4956668;28;19953;-47
2023/05/31 02:00:11;;;;;;;;;;;;;;;26.55;28.64;96563.25;4965832;28;19969;-53
2023/05/31 02:02:42;;;;;;;;;;;;;;;27.27;28.24;96566.09;4958670;28;20551;-51
2023/05/31 02:05:12;;;;;;;;;;;;;;;27.15;28.19;96571.63;4957382;28;20025;-52
2023/05/31 02:07:41;;;;;;;;;;;;;;;27.25;28.00;96567.41;4955658;28;19957;-47
2023/05/31 02:10:10;;;;;;;;;;;;;;;26.78;28.66;96565.03;4961266;28;19969;-48
2023/05/31 02:12:38;;;;;;;;;;;;;;;27.27;28.37;96565.28;4961717;28;19964;-51
2023/05/31 02:15:10;;;;;;;;;;;;;;;27.53;27.70;96558.31;4963483;28;19922;-48
2023/05/31 02:17:40;;;;;;;;;;;;;;;27.42;28.00;96562.78;4970343;28;19961;-52
2023/05/31 02:20:12;;;;;;;;;;;;;;;27.05;28.30;96560.59;4963720;28;19953;-46
2023/05/31 02:22:41;;;;;;;;;;;;;;;27.20;28.21;96568.97;4961257;28;20012;-46
2023/05/31 02:25:10;;;;;;;;;;;;;;;27.59;27.72;96562.75;4963044;28;19969;-49
2023/05/31 02:27:38;;;;;;;;;;;;;;;27.27;28.06;96566.09;4963957;28;19957;-49
2023/05/31 02:30:07;;;;;;;;;;;;;;;26.62;28.93;96562.03;4967284;28;19979;-49
2023/05/31 02:32:35;;;;;;;;;;;;;;;26.86;28.84;96551.88;4957312;28;19992;-49
2023/05/31 02:35:04;;;;;;;;;;;;;;;27.21;28.43;96559.78;4958690;28;19972;-51
2023/05/31 02:37:33;;;;;;;;;;;;;;;26.82;28.71;96564.28;4964595;28;19968;-48
2023/05/31 02:40:05;;;;;;;;;;;;;;;26.90;29.00;96560.34;4973299;28;19968;-50
2023/05/31 02:42:34;;;;;;;;;;;;;;;26.93;28.49;96565.25;4960558;28;19969;-49
2023/05/31 02:45:02;;;;;;;;;;;;;;;27.06;28.26;96566.84;4969690;28;19953;-52
2023/05/31 02:47:30;;;;;;;;;;;;;;;27.14;28.43;96563.72;4964448;28;19923;-49
2023/05/31 02:49:59;;;;;;;;;;;;;;;27.40;28.32;96554.91;4960817;28;19980;-53
2023/05/31 02:52:27;;;;;;;;;;;;;;;27.89;27.70;96565.06;4972303;28;19958;-55
2023/05/31 02:54:56;;;;;;;;;;;;;;;28.17;27.33;96564.88;4966589;28;20003;-51
2023/05/31 02:57:24;;;;;;;;;;;;;;;28.37;26.98;96569.69;4965076;28;19976;-54
2023/05/31 02:59:55;;;;;;;;;;;;;;;27.69;27.43;96577.25;4960870;28;19965;-51
2023/05/31 03:02:24;;;;;;;;;;;;;;;27.22;28.12;96582.28;4965580;28;20492;-54
2023/05/31 03:04:52;;;;;;;;;;;;;;;27.61;27.45;96577.69;4959580;28;19962;-53
2023/05/31 03:07:20;;;;;;;;;;;;;;;27.34;28.00;96584.88;4961959;28;20377;-54
2023/05/31 03:09:48;;;;;;;;;;;;;;;27.47;28.01;96579.13;4969686;28;19973;-52
2023/05/31 03:12:18;;;;;;;;;;;;;;;26.96;28.61;96587.25;4960647;28;19969;-50
2023/05/31 03:14:46;;;;;;;;;;;;;;;27.44;28.02;96588.56;4958184;28;20004;-54
2023/05/31 03:17:14;;;;;;;;;;;;;;;27.04;28.44;96585.19;4958738;28;19966;-51
2023/05/31 03:19:42;;;;;;;;;;;;;;;28.03;27.63;96579.88;4959738;28;20377;-49
2023/05/31 03:22:11;;;;;;;;;;;;;;;28.13;27.26;96580.00;4962348;28;19922;-54
2023/05/31 03:24:40;;;;;;;;;;;;;;;27.65;27.96;96584.25;4959698;28;19993;-52
2023/05/31 03:27:08;;;;;;;;;;;;;;;27.20;28.63;96596.06;4956500;28;19965;-48
2023/05/31 03:29:38;;;;;;;;;;;;;;;28.28;27.49;96595.63;4958395;28;19992;-47
2023/05/31 03:32:06;;;;;;;;;;;;;;;27.75;27.77;96590.88;4963632;28;19957;-49
2023/05/31 03:34:35;;;;;;;;;;;;;;;27.44;28.37;96595.88;4960544;28;20513;-49
2023/05/31 03:37:03;;;;;;;;;;;;;;;27.38;28.27;96596.84;4962369;28;20630;-52
2023/05/31 03:39:32;;;;;;;;;;;;;;;27.82;27.70;96586.13;4964524;28;19961;-49
2023/05/31 03:42:00;;;;;;;;;;;;;;;27.34;28.14;96587.59;4961682;28;20000;-47
2023/05/31 03:44:29;;;;;;;;;;;;;;;27.42;28.12;96596.09;4956876;28;19977;-52
2023/05/31 03:46:58;;;;;;;;;;;;;;;27.73;27.90;96596.53;4958980;28;20377;-47
2023/05/31 03:49:26;;;;;;;;;;;;;;;27.51;28.12;96595.69;4959322;28;19984;-48
2023/05/31 03:51:54;;;;;;;;;;;;;;;27.40;28.37;96589.31;4961699;28;19973;-53
2023/05/31 03:54:22;;;;;;;;;;;;;;;27.91;28.02;96587.34;4965294;28;19964;-46
2023/05/31 03:56:50;;;;;;;;;;;;;;;27.34;28.48;96601.13;4960003;28;19972;-47
2023/05/31 03:59:18;;;;;;;;;;;;;;;27.49;28.20;96600.53;4957590;28;19957;-48
2023/05/31 04:01:46;;;;;;;;;;;;;;;27.53;28.29;96590.84;4961742;28;20401;-49
2023/05/31 04:04:16;;;;;;;;;;;;;;;28.52;27.46;96595.38;4961429;28;19972;-53
2023/05/31 04:06:44;;;;;;;;;;;;;;;28.68;27.08;96593.66;4962767;28;19976;-48
2023/05/31 04:09:12;;;;;;;;;;;;;;;28.83;26.99;96593.78;4959414;28;20058;-49
2023/05/31 04:11:40;;;;;;;;;;;;;;;29.26;26.59;96586.56;4961327;28;19961;-50
2023/05/31 04:14:08;;;;;;;;;;;;;;;28.99;26.83;96590.16;4968846;28;19957;-52
2023/05/31 04:16:36;;;;;;;;;;;;;;;29.17;27.02;96588.94;4963965;28;19961;-52
2023/05/31 04:19:04;;;;;;;;;;;;;;;28.99;26.94;96601.03;4967583;28;19969;-50
2023/05/31 04:21:35;;;;;;;;;;;;;;;29.25;26.50;96595.78;4961874;28;19953;-50
2023/05/31 04:24:03;;;;;;;;;;;;;;;29.44;26.54;96597.00;4960473;28;20414;-52
2023/05/31 04:26:32;;;;;;;;;;;;;;;29.63;26.52;96592.00;4955401;28;22567;-51
2023/05/31 04:29:00;;;;;;;;;;;;;;;28.76;27.50;96596.69;4957920;28;19972;-48
2023/05/31 04:31:28;;;;;;;;;;;;;;;28.57;27.93;96596.25;4959977;28;19958;-47
2023/05/31 04:34:17;;;;;;;;;;;;;;;28.07;28.15;96608.13;4953179;28;19958;-50
2023/05/31 04:36:48;;;;;;;;;;;;;;;28.13;28.06;96600.88;4957041;28;19992;-47
2023/05/31 04:39:19;;;;;;;;;;;;;;;28.84;27.56;96601.69;4958033;28;19961;-48
2023/05/31 04:41:48;;;;;;;;;;;;;;;28.29;28.12;96600.00;4959818;28;19969;-50
2023/05/31 04:44:16;;;;;;;;;;;;;;;29.23;27.37;96600.66;4967357;28;19962;-47
2023/05/31 04:46:44;;;;;;;;;;;;;;;30.25;26.54;96610.28;4954671;28;19981;-49
2023/05/31 04:49:12;;;;;;;;;;;;;;;29.21;26.90;96610.97;4963161;28;19950;-50
2023/05/31 04:51:40;;;;;;;;;;;;;;;30.39;26.38;96609.78;4961075;28;19957;-49
2023/05/31 04:54:10;;;;;;;;;;;;;;;31.26;25.43;96604.47;4964451;28;20565;-52
2023/05/31 04:56:38;;;;;;;;;;;;;;;31.25;25.33;96605.56;4949221;28;19958;-49
2023/05/31 04:59:07;;;;;;;;;;;;;;;30.68;25.79;96607.41;4958977;28;19961;-49
2023/05/31 05:01:35;;;;;;;;;;;;;;;32.13;24.81;96605.16;4952786;28;19962;-49
2023/05/31 05:04:04;;;;;;;;;;;;;;;31.42;24.92;96606.16;4958936;28;19973;-51
2023/05/31 05:06:32;;;;;;;;;;;;;;;30.10;26.66;96614.81;4960301;28;19962;-50
2023/05/31 05:09:00;;;;;;;;;;;;;;;30.30;26.27;96619.53;4953816;28;19957;-48
2023/05/31 05:11:30;;;;;;;;;;;;;;;29.80;26.67;96624.44;4960902;28;19961;-50
2023/05/31 05:13:58;;;;;;;;;;;;;;;30.27;26.94;96616.25;4958699;28;19962;-45
2023/05/31 05:16:26;;;;;;;;;;;;;;;29.86;26.88;96612.50;4965599;28;19997;-47
2023/05/31 05:18:54;;;;;;;;;;;;;;;29.62;27.08;96619.44;4956783;28;20410;-53
2023/05/31 05:21:22;;;;;;;;;;;;;;;30.07;26.82;96618.06;4953422;28;19965;-54
2023/05/31 05:23:50;;;;;;;;;;;;;;;30.28;26.46;96622.53;4966765;28;19961;-48
2023/05/31 05:26:18;;;;;;;;;;;;;;;31.52;25.63;96613.47;4962907;28;19965;-48
2023/05/31 05:28:48;;;;;;;;;;;;;;;30.64;26.47;96612.56;4958907;28;19965;-49
2023/05/31 05:31:16;;;;;;;;;;;;;;;31.01;26.10;96614.28;4960531;28;19967;-48
2023/05/31 05:33:44;;;;;;;;;;;;;;;31.42;25.76;96611.59;4960251;28;19973;-48
2023/05/31 05:36:12;;;;;;;;;;;;;;;30.90;26.36;96610.75;4965600;28;19966;-49
2023/05/31 05:38:41;;;;;;;;;;;;;;;30.77;26.59;96615.91;4958173;28;19969;-51
2023/05/31 05:41:12;;;;;;;;;;;;;;;31.38;25.70;96611.31;4961103;28;19958;-52
2023/05/31 05:43:40;;;;;;;;;;;;;;;30.56;26.09;96618.56;4963829;28;20434;-50
2023/05/31 05:46:09;;;;;;;;;;;;;;;32.24;25.32;96614.13;4959430;28;19957;-49
2023/05/31 05:48:37;;;;;;;;;;;;;;;30.85;26.15;96618.09;4962959;28;19966;-51
2023/05/31 05:51:05;;;;;;;;;;;;;;;31.51;25.85;96612.66;4962250;28;19969;-48
2023/05/31 05:53:33;;;;;;;;;;;;;;;31.40;26.27;96621.94;4959820;28;19960;-45
2023/05/31 05:56:01;;;;;;;;;;;;;;;30.28;26.60;96622.53;4953885;28;19957;-51
2023/05/31 05:58:30;;;;;;;;;;;;;;;30.08;27.49;96625.16;4958378;28;19961;-50
2023/05/31 06:00:58;;;;;;;;;;;;;;;31.30;26.55;96625.44;4961471;28;19962;-52
2023/05/31 06:03:27;;;;;;;;;;;;;;;30.71;27.09;96625.94;4961352;28;19965;-52
2023/05/31 06:05:56;;;;;;;;;;;;;;;29.23;27.74;96634.09;4957739;28;20429;-50
2023/05/31 06:08:24;;;;;;;;;;;;;;;29.44;27.86;96631.53;4959065;28;20056;-51
2023/05/31 06:10:52;;;;;;;;;;;;;;;30.38;27.53;96628.00;4966933;28;20014;-49
2023/05/31 06:13:20;;;;;;;;;;;;;;;28.36;28.95;96635.06;4962359;28;20044;-46
2023/05/31 06:15:48;;;;;;;;;;;;;;;30.25;26.68;96631.25;4969624;28;19969;-50
2023/05/31 06:18:16;;;;;;;;;;;;;;;30.06;27.55;96630.84;4964912;28;19988;-49
2023/05/31 06:20:45;;;;;;;;;;;;;;;30.54;26.77;96633.50;4965287;28;20437;-47
2023/05/31 06:23:13;;;;;;;;;;;;;;;29.44;27.94;96629.63;4963317;28;19957;-54
2023/05/31 06:25:41;;;;;;;;;;;;;;;30.93;26.51;96623.78;4959657;28;19966;-52
2023/05/31 06:28:10;;;;;;;;;;;;;;;30.96;26.63;96634.16;4956393;28;19949;-48
2023/05/31 06:30:38;;;;;;;;;;;;;;;29.40;28.10;96635.84;4964858;28;19953;-47
2023/05/31 06:33:06;;;;;;;;;;;;;;;30.14;27.09;96632.22;4962766;28;19957;-47
2023/05/31 06:35:34;;;;;;;;;;;;;;;30.17;27.33;96635.22;4954235;28;19988;-47
2023/05/31 06:38:03;;;;;;;;;;;;;;;30.43;26.94;96643.53;4961491;28;19973;-49
2023/05/31 06:40:32;;;;;;;;;;;;;;;29.87;27.12;96645.94;4965061;28;19965;-51
2023/05/31 06:42:59;;;;;;;;;;;;;;;29.19;28.12;96641.13;4960531;28;19965;-52
2023/05/31 06:45:28;;;;;;;;;;;;;;;29.41;27.95;96632.84;4959133;28;19966;-49
2023/05/31 06:47:56;;;;;;;;;;;;;;;30.62;27.22;96633.78;4966003;28;20051;-51
2023/05/31 06:50:27;;;;;;;;;;;;;;;29.06;27.97;96633.38;4963501;28;20335;-51
2023/05/31 06:52:56;;;;;;;;;;;;;;;30.90;26.42;96629.81;4964129;28;20417;-50
2023/05/31 06:55:25;;;;;;;;;;;;;;;30.89;26.71;96628.16;4962177;28;20429;-50
2023/05/31 06:57:53;;;;;;;;;;;;;;;30.26;27.12;96627.44;4959301;28;20354;-47
2023/05/31 07:00:21;;;;;;;;;;;;;;;30.63;26.65;96629.19;4957293;28;19961;-50
2023/05/31 07:02:49;;;;;;;;;;;;;;;30.32;27.03;96618.22;4965627;28;19972;-51
2023/05/31 07:05:17;;;;;;;;;;;;;;;30.45;27.34;96638.63;4961859;28;19957;-48
2023/05/31 07:07:45;;;;;;;;;;;;;;;32.15;25.55;96622.06;4950456;28;19961;-49
2023/05/31 07:10:13;;;;;;;;;;;;;;;32.07;25.60;96620.75;4951509;28;19970;-47
2023/05/31 07:12:43;;;;;;;;;;;;;;;31.51;26.52;96629.00;4956067;28;19961;-50
2023/05/31 07:15:11;;;;;;;;;;;;;;;31.02;26.52;96624.09;4960173;28;20429;-54
2023/05/31 07:17:39;;;;;;;;;;;;;;;31.41;26.42;96616.22;4950399;28;19962;-50
2023/05/31 07:20:08;;;;;;;;;;;;;;;30.78;26.86;96628.41;4960104;28;19964;-50
2023/05/31 07:22:36;;;;;;;;;;;;;;;31.08;26.19;96625.75;4954024;28;20381;-48
2023/05/31 07:25:05;;;;;;;;;;;;;;;32.14;25.60;96626.72;4963677;28;19960;-47
2023/05/31 07:27:33;;;;;;;;;;;;;;;32.06;26.05;96624.56;4953855;28;19985;-48
2023/05/31 07:30:02;;;;;;;;;;;;;;;32.92;25.23;96617.03;4956155;28;19958;-51
2023/05/31 07:32:30;;;;;;;;;;;;;;;32.52;25.73;96626.28;4968702;28;19968;-51
2023/05/31 07:34:59;;;;;;;;;;;;;;;33.24;25.17;96623.94;4963882;28;19968;-49
2023/05/31 07:37:31;;;;;;;;;;;;;;;32.01;25.45;96612.84;4958369;28;20414;-48
2023/05/31 07:39:59;;;;;;;;;;;;;;;33.51;24.61;96609.78;4955669;28;20395;-50
2023/05/31 07:42:28;;;;;;;;;;;;;;;33.20;25.33;96622.88;4957652;28;19949;-47
2023/05/31 07:44:56;;;;;;;;;;;;;;;32.22;25.77;96616.31;4961078;28;19969;-48
2023/05/31 07:47:26;;;;;;;;;;;;;;;32.23;25.67;96618.75;4962095;28;19954;-48
2023/05/31 07:49:54;;;;;;;;;;;;;;;32.34;25.66;96620.34;4961665;28;20406;-53
2023/05/31 07:52:22;;;;;;;;;;;;;;;32.52;25.39;96616.22;4953133;28;20395;-49
2023/05/31 07:54:50;;;;;;;;;;;;;;;31.87;26.36;96616.16;4960989;28;19966;-54
2023/05/31 07:57:18;;;;;;;;;;;;;;;32.29;25.82;96606.72;4963480;28;19965;-51
2023/05/31 07:59:47;;;;;;;;;;;;;;;32.20;25.78;96613.03;4955100;28;19961;-50
2023/05/31 08:02:15;;;;;;;;;;;;;;;32.06;26.37;96604.66;4960319;28;19961;-49
2023/05/31 08:04:44;;;;;;;;;;;;;;;31.88;26.08;96608.81;4957972;28;20195;-46
2023/05/31 08:07:13;;;;;;;;;;;;;;;32.67;24.87;96601.66;4959682;28;20041;-49
2023/05/31 08:09:41;;;;;;;;;;;;;;;33.04;25.26;96600.34;4962075;28;19965;-48
2023/05/31 08:12:10;;;;;;;;;;;;;;;33.24;24.81;96602.06;4957442;28;19969;-51
2023/05/31 08:14:38;;;;;;;;;;;;;;;33.02;25.08;96599.78;4959195;28;19972;-52
2023/05/31 08:17:06;;;;;;;;;;;;;;;33.09;24.89;96600.28;4954726;28;19954;-49
2023/05/31 08:19:34;;;;;;;;;;;;;;;33.01;25.34;96595.44;4969130;28;20590;-50
2023/05/31 08:22:04;;;;;;;;;;;;;;;34.28;24.62;96592.56;4963345;28;19954;-51
2023/05/31 08:24:32;;;;;;;;;;;;;;;31.72;26.55;96594.34;4955184;28;19953;-49
2023/05/31 08:27:00;;;;;;;;;;;;;;;32.26;25.97;96595.56;4952402;28;19962;-52
2023/05/31 08:29:28;;;;;;;;;;;;;;;33.32;25.45;96588.59;4952683;28;20391;-48
2023/05/31 08:31:56;;;;;;;;;;;;;;;33.58;24.90;96593.03;4956998;28;20361;-50
2023/05/31 08:34:24;;;;;;;;;;;;;;;34.68;24.40;96592.00;4961819;28;19972;-54
2023/05/31 08:36:52;;;;;;;;;;;;;;;34.86;24.08;96592.28;4953157;28;19997;-50
2023/05/31 08:39:22;;;;;;;;;;;;;;;34.70;23.81;96589.78;4954854;28;20587;-49
2023/05/31 08:41:51;;;;;;;;;;;;;;;35.17;23.97;96585.25;4962224;28;20578;-48
2023/05/31 08:44:19;;;;;;;;;;;;;;;33.48;24.75;96586.59;4958163;28;19957;-53
2023/05/31 08:46:47;;;;;;;;;;;;;;;32.92;25.01;96584.25;4954620;28;19962;-49
2023/05/31 08:49:16;;;;;;;;;;;;;;;33.54;24.59;96584.59;4962727;28;19973;-53
2023/05/31 08:51:44;;;;;;;;;;;;;;;33.07;25.41;96578.72;4958715;28;19965;-47
2023/05/31 08:54:13;;;;;;;;;;;;;;;33.89;25.00;96585.31;4962023;28;19974;-50
2023/05/31 08:56:43;;;;;;;;;;;;;;;33.01;25.17;96579.84;4959133;28;19980;-47
2023/05/31 08:59:11;;;;;;;;;;;;;;;34.73;23.81;96578.25;4955824;28;19957;-48
2023/05/31 09:01:40;;;;;;;;;;;;;;;34.64;23.96;96582.75;4964555;28;19962;-48
2023/05/31 09:04:08;;;;;;;;;;;;;;;33.74;24.52;96578.09;4952158;28;19962;-51
2023/05/31 09:06:36;;;;;;;;;;;;;;;34.28;24.26;96582.41;4955314;28;19961;-49
2023/05/31 09:09:07;;;;;;;;;;;;;;;33.84;23.93;96588.94;4963928;28;19980;-54
2023/05/31 09:11:37;;;;;;;;;;;;;;;34.10;24.27;96580.44;4957051;28;19965;-49
2023/05/31 09:14:08;;;;;;;;;;;;;;;33.23;24.95;96582.13;4954853;28;19958;-47
2023/05/31 09:16:36;;;;;;;;;;;;;;;34.77;23.53;96580.41;4955395;28;20462;-47
2023/05/31 09:19:05;;;;;;;;;;;;;;;34.84;23.43;96576.16;4963355;28;19969;-51
2023/05/31 09:21:38;;;;;;;;;;;;;;;35.16;22.97;96575.38;4962623;28;20338;-49
2023/05/31 09:24:06;;;;;;;;;;;;;;;33.95;23.41;96575.94;4953777;28;19954;-49
2023/05/31 09:26:34;;;;;;;;;;;;;;;34.08;23.57;96577.19;4954498;28;19968;-50
2023/05/31 09:29:03;;;;;;;;;;;;;;;32.63;23.52;96569.72;4966538;28;19964;-50
2023/05/31 09:31:33;;;;;;;;;;;;;;;33.83;22.32;96570.06;4958687;28;20428;-48
2023/05/31 09:34:01;;;;;;;;;;;;;;;35.26;22.16;96562.63;4956445;28;19957;-48
2023/05/31 09:36:30;;;;;;;;;;;;;;;34.44;22.76;96577.53;4961804;28;19972;-52
2023/05/31 09:39:02;;;;;;;;;;;;;;;34.75;21.67;96577.13;4953402;28;19953;-48
2023/05/31 09:41:31;;;;;;;;;;;;;;;33.74;22.41;96569.91;4968742;28;19972;-54
2023/05/31 09:43:59;;;;;;;;;;;;;;;34.68;21.67;96564.59;4958086;28;19961;-48
2023/05/31 09:46:27;;;;;;;;;;;;;;;33.88;22.34;96556.34;4952124;28;19972;-48
2023/05/31 09:49:00;;;;;;;;;;;;;;;34.80;22.11;96557.88;4955049;28;20297;-50
2023/05/31 09:51:28;;;;;;;;;;;;;;;32.88;23.81;96568.72;4959222;28;20731;-51
2023/05/31 09:53:57;;;;;;;;;;;;;;;32.64;23.50;96568.63;4951059;28;19968;-52
2023/05/31 09:56:27;;;;;;;;;;;;;;;33.60;22.86;96560.75;4968641;28;19964;-53
2023/05/31 09:58:56;;;;;;;;;;;;;;;34.47;22.61;96550.38;4951153;28;19960;-53
2023/05/31 10:01:24;;;;;;;;;;;;;;;34.96;22.53;96551.03;4962069;28;19961;-52
2023/05/31 10:03:53;;;;;;;;;;;;;;;34.16;22.58;96560.13;4953593;28;19958;-48
2023/05/31 10:06:22;;;;;;;;;;;;;;;32.97;23.03;96561.59;4958436;28;19996;-52
2023/05/31 10:08:50;;;;;;;;;;;;;;;33.78;23.06;96560.00;4958357;28;19980;-47
2023/05/31 10:11:19;;;;;;;;;;;;;;;35.36;22.56;96546.81;4956083;28;19972;-53
2023/05/31 10:13:48;;;;;;;;;;;;;;;33.69;23.62;96546.16;4966924;28;20349;-48
2023/05/31 10:16:16;;;;;;;;;;;;;;;34.30;22.99;96557.47;4952537;28;19968;-52
2023/05/31 10:18:46;;;;;;;;;;;;;;;32.96;23.80;96546.28;4950925;28;19946;-48
2023/05/31 10:21:20;;;;;;;;;;;;;;;33.90;22.67;96545.91;4959481;28;19965;-52
2023/05/31 10:23:50;;;;;;;;;;;;;;;35.23;21.74;96541.28;4957561;28;19957;-51
2023/05/31 10:26:19;;;;;;;;;;;;;;;34.59;21.72;96538.22;4950427;28;19966;-53
2023/05/31 10:28:49;;;;;;;;;;;;;;;34.84;22.45;96540.53;4957647;28;20075;-48
2023/05/31 10:31:17;;;;;;;;;;;;;;;32.67;23.08;96538.84;4957758;28;19965;-51
2023/05/31 10:33:49;;;;;;;;;;;;;;;34.15;22.15;96531.13;4955511;28;20433;-47
2023/05/31 10:36:17;;;;;;;;;;;;;;;35.10;21.78;96542.88;4958297;28;19957;-49
2023/05/31 10:38:46;;;;;;;;;;;;;;;35.31;21.62;96535.94;4950728;28;19967;-55
2023/05/31 10:41:16;;;;;;;;;;;;;;;34.90;21.93;96522.91;4956183;28;19961;-50
2023/05/31 10:43:55;;;;;;;;;;;;;;;34.88;22.54;96538.00;4950941;28;20031;-47
2023/05/31 10:46:26;;;;;;;;;;;;;;;35.63;22.19;96526.84;4954873;28;19997;-52
2023/05/31 10:48:54;;;;;;;;;;;;;;;35.72;22.28;96531.63;4952600;28;19980;-49
2023/05/31 10:51:37;;;;;;;;;;;;;;;36.03;21.53;96521.69;4951433;28;20380;-48
2023/05/31 10:54:05;;;;;;;;;;;;;;;34.21;22.70;96532.69;4955854;28;20449;-49
2023/05/31 10:56:36;;;;;;;;;;;;;;;34.47;23.35;96512.03;4958851;28;20618;-50
2023/05/31 10:59:04;;;;;;;;;;;;;;;34.30;24.02;96519.94;4966334;28;19969;-50
2023/05/31 11:01:32;;;;;;;;;;;;;;;35.55;21.96;96519.34;4962221;28;19961;-48
2023/05/31 11:04:01;;;;;;;;;;;;;;;35.56;22.06;96510.00;4961458;28;20355;-47
2023/05/31 11:06:30;;;;;;;;;;;;;;;35.37;21.95;96506.47;4956262;28;19958;-53
2023/05/31 11:08:59;;;;;;;;;;;;;;;35.22;21.77;96510.31;4960402;28;20414;-47
2023/05/31 11:11:27;;;;;;;;;;;;;;;34.18;23.66;96512.19;4955742;28;19964;-47
2023/05/31 11:13:57;;;;;;;;;;;;;;;36.20;22.70;96514.72;4962411;28;20586;-48
2023/05/31 11:16:25;;;;;;;;;;;;;;;35.50;22.52;96511.16;4968103;28;19965;-47
2023/05/31 11:19:03;;;;;;;;;;;;;;;35.30;22.91;96498.66;4966049;28;19965;-52
2023/05/31 11:21:46;;;;;;;;;;;;;;;36.07;22.83;96500.75;4967993;28;20493;-51
2023/05/31 11:24:25;;;;;;;;;;;;;;;35.49;22.65;96504.06;4952574;28;19962;-50
2023/05/31 11:26:54;;;;;;;;;;;;;;;35.53;21.95;96494.13;4957552;28;19984;-50
2023/05/31 11:29:23;;;;;;;;;;;;;;;34.50;22.20;96481.31;4954792;28;19954;-52
2023/05/31 11:32:01;;;;;;;;;;;;;;;35.13;21.71;96498.41;4964807;28;19965;-49
2023/05/31 11:34:31;;;;;;;;;;;;;;;35.26;22.33;96503.13;4953506;28;19996;-50
2023/05/31 11:36:59;;;;;;;;;;;;;;;35.89;22.74;96496.97;4956369;28;19970;-51
2023/05/31 11:39:27;;;;;;;;;;;;;;;35.46;22.30;96488.22;4957329;28;20060;-49
2023/05/31 11:41:55;;;;;;;;;;;;;;;35.24;23.28;96488.06;4958251;28;19969;-48
2023/05/31 11:44:29;;;;;;;;;;;;;;;35.67;22.10;96491.38;4959631;28;19969;-48
2023/05/31 11:47:00;;;;;;;;;;;;;;;35.92;21.48;96487.28;4959479;28;19954;-47
2023/05/31 11:49:28;;;;;;;;;;;;;;;36.33;21.40;96492.72;4959132;28;19962;-48
2023/05/31 11:51:56;;;;;;;;;;;;;;;34.97;22.42;96490.44;4958314;28;19980;-50
2023/05/31 11:54:26;;;;;;;;;;;;;;;35.48;22.11;96480.50;4953065;28;19981;-51
2023/05/31 11:56:56;;;;;;;;;;;;;;;36.05;22.54;96483.75;4961397;28;20425;-52
2023/05/31 11:59:25;;;;;;;;;;;;;;;37.11;21.99;96480.75;4952707;28;19969;-51
2023/05/31 12:01:57;;;;;;;;;;;;;;;36.24;21.68;96485.56;4960804;28;19969;-47
2023/05/31 12:04:28;;;;;;;;;;;;;;;36.15;21.88;96485.47;4953954;28;19953;-48
2023/05/31 12:06:56;;;;;;;;;;;;;;;35.41;23.19;96491.03;4962171;28;19973;-47
2023/05/31 12:09:24;;;;;;;;;;;;;;;35.70;23.05;96484.47;4957556;28;19969;-50
2023/05/31 12:11:52;;;;;;;;;;;;;;;36.65;22.08;96477.19;4957858;28;19964;-50
2023/05/31 12:14:20;;;;;;;;;;;;;;;35.26;23.18;96483.09;4958956;28;19968;-49
2023/05/31 12:16:50;;;;;;;;;;;;;;;36.40;22.61;96469.53;4962159;28;19972;-53
2023/05/31 12:19:19;;;;;;;;;;;;;;;36.60;21.98;96477.31;4955239;28;20364;-45
2023/05/31 12:21:47;;;;;;;;;;;;;;;35.34;22.24;96479.66;4957933;28;20442;-49
2023/05/31 12:24:15;;;;;;;;;;;;;;;36.00;21.30;96474.81;4954704;28;19973;-55
2023/05/31 12:26:44;;;;;;;;;;;;;;;36.09;21.16;96473.78;4959727;28;19984;-49
2023/05/31 12:29:14;;;;;;;;;;;;;;;36.52;21.27;96476.13;4952686;28;19966;-48
2023/05/31 12:31:42;;;;;;;;;;;;;;;36.52;22.12;96470.63;4959865;28;20004;-48
2023/05/31 12:34:11;;;;;;;;;;;;;;;37.84;20.86;96461.97;4965204;28;19962;-48
2023/05/31 12:36:41;;;;;;;;;;;;;;;35.97;21.62;96472.66;4959487;28;19969;-50
2023/05/31 12:39:11;;;;;;;;;;;;;;;35.75;22.20;96459.66;4963304;28;19961;-50
2023/05/31 12:41:39;;;;;;;;;;;;;;;36.26;22.61;96464.88;4977837;28;19961;-51
2023/05/31 12:44:08;;;;;;;;;;;;;;;37.12;21.88;96455.66;4957083;28;19957;-47
2023/05/31 12:46:39;;;;;;;;;;;;;;;38.58;21.20;96455.59;4962909;28;19965;-48
2023/05/31 12:49:14;;;;;;;;;;;;;;;37.17;21.99;96452.00;4955697;28;20419;-51
2023/05/31 12:51:44;;;;;;;;;;;;;;;36.93;21.75;96453.13;4956372;28;19954;-48
2023/05/31 12:54:12;;;;;;;;;;;;;;;36.98;21.29;96458.50;4952261;28;19972;-51
2023/05/31 12:56:40;;;;;;;;;;;;;;;36.54;22.26;96462.88;4952882;28;19964;-50